createdAt,value
2018-09-29T00:01:17.136Z,7.37
2018-09-29T00:03:47.629Z,7.23
2018-09-29T00:06:18.687Z,2.93
2018-09-29T00:08:49.836Z,8.77
2018-09-29T00:11:20.921Z,6.00
2018-09-29T00:13:52.556Z,6.97
2018-09-29T00:16:24.595Z,5.77
2018-09-29T00:18:56.963Z,6.10
2018-09-29T00:21:27.121Z,6.27
2018-09-29T00:24:01.003Z,4.50
2018-09-29T00:26:33.911Z,6.10
2018-09-29T00:29:05.574Z,11.37
2018-09-29T00:31:35.795Z,5.97
2018-09-29T00:34:08.864Z,4.60
2018-09-29T00:36:40.430Z,6.77
2018-09-29T00:39:12.173Z,3.77
2018-09-29T00:41:44.157Z,11.27
2018-09-29T00:44:15.987Z,9.67
2018-09-29T00:46:47.587Z,7.93
2018-09-29T00:49:19.066Z,5.97
2018-09-29T00:51:51.325Z,8.47
2018-09-29T00:54:21.517Z,5.00
2018-09-29T00:56:52.644Z,6.90
2018-09-29T00:59:29.149Z,7.70
2018-09-29T01:04:35.385Z,5.97
2018-09-29T01:07:07.919Z,8.70
2018-09-29T01:09:39.919Z,8.37
2018-09-29T01:12:10.450Z,6.70
2018-09-29T01:14:41.914Z,7.10
2018-09-29T01:17:12.752Z,4.17
2018-09-29T01:19:43.689Z,5.83
2018-09-29T01:22:14.427Z,7.93
2018-09-29T01:24:44.917Z,5.50
2018-09-29T01:27:17.746Z,6.47
2018-09-29T01:29:48.922Z,6.03
2018-09-29T01:32:21.151Z,6.57
2018-09-29T01:34:53.295Z,10.70
2018-09-29T01:37:24.438Z,5.97
2018-09-29T01:40:00.170Z,4.33
2018-09-29T01:42:30.554Z,7.27
2018-09-29T01:45:01.189Z,6.30
2018-09-29T01:47:32.101Z,5.83
2018-09-29T01:50:03.554Z,7.47
2018-09-29T01:52:35.012Z,9.37
2018-09-29T01:55:09.488Z,5.50
2018-09-29T01:57:39.651Z,7.90
2018-09-29T02:00:11.702Z,4.50
2018-09-29T02:02:43.934Z,7.47
2018-09-29T02:05:19.968Z,5.60
2018-09-29T02:07:55.719Z,5.73
2018-09-29T02:10:28.636Z,4.73
2018-09-29T02:13:00.441Z,8.07
2018-09-29T02:15:32.191Z,5.40
2018-09-29T02:18:04.742Z,7.73
2018-09-29T02:20:41.211Z,7.47
2018-09-29T02:23:13.773Z,5.83
2018-09-29T02:25:44.835Z,9.00
2018-09-29T02:28:16.767Z,6.20
2018-09-29T02:30:48.749Z,9.13
2018-09-29T02:33:20.915Z,6.13
2018-09-29T02:35:51.951Z,6.67
2018-09-29T02:38:23.433Z,6.77
2018-09-29T02:40:54.581Z,6.33
2018-09-29T02:43:26.841Z,7.20
2018-09-29T02:46:02.639Z,5.97
2018-09-29T02:48:33.602Z,6.53
2018-09-29T02:51:05.000Z,5.50
2018-09-29T02:53:36.915Z,7.77
2018-09-29T02:56:09.653Z,12.67
2018-09-29T02:58:40.930Z,6.57
2018-09-29T03:01:16.010Z,8.80
2018-09-29T03:03:46.360Z,6.37
2018-09-29T03:06:17.737Z,5.90
2018-09-29T03:08:52.475Z,12.03
2018-09-29T03:11:22.964Z,9.13
2018-09-29T03:13:53.272Z,10.17
2018-09-29T03:16:24.590Z,4.87
2018-09-29T03:18:56.897Z,6.70
2018-09-29T03:21:27.663Z,8.33
2018-09-29T03:23:58.204Z,9.40
2018-09-29T03:26:28.631Z,6.83
2018-09-29T03:28:59.530Z,5.80
2018-09-29T03:31:33.888Z,9.17
2018-09-29T03:34:04.117Z,6.53
2018-09-29T03:36:35.637Z,6.30
2018-09-29T03:39:09.155Z,8.90
2018-09-29T03:41:40.673Z,4.67
2018-09-29T03:44:12.352Z,7.07
2018-09-29T03:46:44.961Z,8.33
2018-09-29T03:49:15.681Z,6.50
2018-09-29T03:51:46.851Z,8.17
2018-09-29T03:54:18.791Z,5.10
2018-09-29T03:56:54.497Z,4.93
2018-09-29T03:59:27.629Z,8.80
2018-09-29T04:01:59.126Z,6.17
2018-09-29T04:04:30.701Z,5.17
2018-09-29T04:07:01.910Z,6.13
2018-09-29T04:09:32.889Z,4.10
2018-09-29T04:12:08.384Z,5.80
2018-09-29T04:14:42.850Z,7.30
2018-09-29T04:17:16.475Z,7.73
2018-09-29T04:19:46.903Z,4.47
2018-09-29T04:22:17.684Z,6.10
2018-09-29T04:24:49.520Z,6.77
2018-09-29T04:27:22.529Z,8.53
2018-09-29T04:29:55.021Z,9.47
2018-09-29T04:32:27.907Z,5.50
2018-09-29T04:34:58.022Z,4.77
2018-09-29T04:37:28.689Z,5.27
2018-09-29T04:39:59.610Z,6.80
2018-09-29T04:42:30.613Z,5.13
2018-09-29T04:45:01.018Z,4.60
2018-09-29T04:47:32.942Z,8.60
2018-09-29T04:50:06.586Z,8.80
2018-09-29T04:52:37.954Z,5.87
2018-09-29T04:55:08.936Z,6.23
2018-09-29T04:57:39.452Z,5.70
2018-09-29T05:00:12.064Z,7.33
2018-09-29T05:02:42.854Z,7.00
2018-09-29T05:05:20.158Z,7.77
2018-09-29T05:07:54.268Z,8.33
2018-09-29T05:10:28.088Z,8.73
2018-09-29T05:12:58.150Z,9.40
2018-09-29T05:15:29.430Z,9.00
2018-09-29T05:18:01.921Z,6.00
2018-09-29T05:20:33.016Z,6.00
2018-09-29T05:23:08.144Z,7.30
2018-09-29T05:25:40.733Z,8.90
2018-09-29T05:28:12.966Z,8.50
2018-09-29T05:30:45.766Z,8.10
2018-09-29T05:33:18.592Z,7.87
2018-09-29T05:35:51.170Z,8.43
2018-09-29T05:38:22.321Z,9.43
2018-09-29T05:40:54.931Z,13.07
2018-09-29T05:43:26.062Z,6.57
2018-09-29T05:45:57.750Z,7.73
2018-09-29T05:48:29.350Z,6.13
2018-09-29T05:51:00.951Z,9.03
2018-09-29T05:53:32.596Z,5.60
2018-09-29T05:56:07.160Z,9.53
2018-09-29T05:58:38.162Z,8.20
2018-09-29T06:01:09.707Z,8.63
2018-09-29T06:03:39.859Z,5.30
2018-09-29T06:06:10.454Z,8.03
2018-09-29T06:08:41.610Z,10.33
2018-09-29T06:11:14.790Z,9.10
2018-09-29T06:13:47.750Z,9.80
2018-09-29T06:16:19.354Z,8.23
2018-09-29T06:18:54.294Z,8.03
2018-09-29T06:21:25.436Z,7.87
2018-09-29T06:23:58.770Z,9.23
2018-09-29T06:26:30.215Z,7.07
2018-09-29T06:29:00.755Z,8.63
2018-09-29T06:31:32.059Z,8.50
2018-09-29T06:34:03.557Z,7.60
2018-09-29T06:36:34.895Z,10.80
2018-09-29T06:39:13.253Z,8.03
2018-09-29T06:41:47.384Z,7.73
2018-09-29T06:47:15.572Z,7.13
2018-09-29T06:49:46.865Z,9.37
2018-09-29T06:52:18.231Z,9.40
2018-09-29T06:54:49.892Z,8.70
2018-09-29T06:57:20.809Z,6.53
2018-09-29T06:59:52.010Z,8.70
2018-09-29T07:02:23.559Z,13.23
2018-09-29T07:05:08.980Z,8.90
2018-09-29T07:07:39.388Z,11.37
2018-09-29T07:10:09.700Z,7.30
2018-09-29T07:12:40.816Z,7.47
2018-09-29T07:15:13.141Z,9.77
2018-09-29T07:17:43.988Z,7.63
2018-09-29T07:20:14.481Z,7.00
2018-09-29T07:22:46.400Z,6.63
2018-09-29T07:25:16.906Z,5.73
2018-09-29T07:27:47.851Z,5.73
2018-09-29T07:30:18.339Z,7.43
2018-09-29T07:32:50.568Z,5.27
2018-09-29T07:35:20.967Z,7.77
2018-09-29T07:37:51.793Z,5.07
2018-09-29T07:40:22.797Z,9.97
2018-09-29T07:42:53.321Z,6.23
2018-09-29T07:45:24.576Z,7.00
2018-09-29T07:47:55.079Z,5.37
2018-09-29T07:50:27.669Z,7.03
2018-09-29T07:52:58.148Z,7.30
2018-09-29T07:55:30.761Z,6.77
2018-09-29T07:58:03.408Z,6.77
2018-09-29T08:00:36.512Z,7.13
2018-09-29T08:03:08.276Z,6.53
2018-09-29T08:05:38.766Z,6.70
2018-09-29T08:08:11.528Z,7.17
2018-09-29T08:10:45.950Z,6.73
2018-09-29T08:13:18.538Z,8.30
2018-09-29T08:15:51.780Z,5.80
2018-09-29T08:18:25.206Z,7.57
2018-09-29T08:20:55.941Z,4.57
2018-09-29T08:23:30.182Z,5.83
2018-09-29T08:26:01.675Z,3.60
2018-09-29T08:28:33.034Z,4.47
2018-09-29T08:31:05.053Z,4.13
2018-09-29T08:33:41.655Z,3.70
2018-09-29T08:49:13.642Z,4.50
2018-09-29T08:51:44.958Z,4.70
2018-09-29T08:54:15.922Z,5.13
2018-09-29T08:56:46.382Z,3.73
2018-09-29T08:59:17.607Z,4.13
2018-09-29T09:01:49.518Z,4.03
2018-09-29T09:04:21.201Z,4.90
2018-09-29T09:06:51.252Z,5.30
2018-09-29T09:09:21.934Z,4.50
2018-09-29T09:18:20.781Z,3.93
2018-09-29T09:20:51.481Z,4.47
2018-09-29T09:23:22.650Z,4.97
2018-09-29T09:25:54.161Z,3.07
2018-09-29T09:28:24.461Z,4.50
2018-09-29T09:30:55.284Z,5.00
2018-09-29T09:33:25.544Z,3.77
2018-09-29T09:35:56.168Z,3.87
2018-09-29T09:38:27.588Z,4.53
2018-09-29T09:40:58.388Z,5.00
2018-09-29T09:43:34.042Z,4.67
2018-09-29T09:46:04.778Z,4.90
2018-09-29T09:48:35.165Z,4.50
2018-09-29T09:51:05.966Z,4.50
2018-09-29T09:53:36.243Z,4.37
2018-09-29T09:56:06.690Z,4.93
2018-09-29T09:58:38.066Z,6.50
2018-09-29T10:01:13.986Z,3.80
2018-09-29T10:03:44.055Z,5.70
2018-09-29T10:06:16.864Z,4.13
2018-09-29T10:08:47.003Z,4.13
2018-09-29T10:11:18.354Z,4.67
2018-09-29T10:13:50.170Z,3.63
2018-09-29T10:16:21.137Z,6.97
2018-09-29T10:18:52.050Z,5.93
2018-09-29T10:21:23.337Z,3.33
2018-09-29T10:23:53.769Z,3.67
2018-09-29T10:26:24.642Z,4.93
2018-09-29T10:28:55.474Z,4.30
2018-09-29T10:31:26.690Z,4.43
2018-09-29T10:33:57.450Z,4.47
2018-09-29T10:36:28.119Z,3.97
2018-09-29T10:38:58.297Z,3.20
2018-09-29T10:41:28.738Z,3.97
2018-09-29T10:44:00.524Z,4.57
2018-09-29T10:49:12.813Z,6.83
2018-09-29T10:51:43.213Z,3.73
2018-09-29T10:54:14.199Z,2.30
2018-09-29T10:56:45.728Z,3.40
2018-09-29T10:59:16.658Z,5.57
2018-09-29T11:01:47.909Z,2.60
2018-09-29T11:04:20.757Z,4.23
2018-09-29T11:06:52.011Z,2.43
2018-09-29T11:09:23.481Z,3.90
2018-09-29T11:11:54.734Z,3.80
2018-09-29T11:14:25.176Z,3.83
2018-09-29T11:16:55.886Z,2.80
2018-09-29T11:19:26.864Z,3.43
2018-09-29T11:21:57.455Z,3.00
2018-09-29T11:24:28.375Z,2.50
2018-09-29T11:26:59.297Z,2.37
2018-09-29T11:29:31.342Z,2.23
2018-09-29T11:32:02.035Z,3.00
2018-09-29T11:34:33.050Z,2.80
2018-09-29T11:37:04.573Z,2.53
2018-09-29T11:39:35.682Z,4.33
2018-09-29T11:42:06.410Z,4.20
2018-09-29T11:44:36.754Z,3.43
2018-09-29T11:47:08.717Z,3.67
2018-09-29T11:49:40.683Z,4.43
2018-09-29T11:52:10.864Z,4.87
2018-09-29T11:54:41.157Z,4.60
2018-09-29T11:57:11.711Z,4.03
2018-09-29T11:59:43.411Z,4.60
2018-09-29T12:02:14.645Z,5.40
2018-09-29T12:04:45.941Z,4.50
2018-09-29T12:09:53.923Z,5.07
2018-09-29T12:12:24.442Z,3.27
2018-09-29T12:14:54.580Z,2.27
2018-09-29T12:17:26.503Z,3.30
2018-09-29T12:19:58.272Z,6.10
2018-09-29T12:22:28.612Z,3.90
2018-09-29T12:24:59.307Z,3.05
2018-09-29T12:27:30.023Z,3.90
2018-09-29T12:30:03.119Z,3.73
2018-09-29T12:32:34.981Z,3.45
2018-09-29T12:35:05.420Z,2.97
2018-09-29T12:37:36.684Z,3.10
2018-09-29T12:40:07.663Z,3.22
2018-09-29T12:42:47.850Z,1.85
2018-09-29T12:45:18.200Z,3.90
2018-09-29T12:47:50.326Z,3.73
2018-09-29T12:50:20.400Z,3.15
2018-09-29T12:52:51.300Z,3.67
2018-09-29T12:55:21.708Z,3.03
2018-09-29T12:57:52.780Z,3.77
2018-09-29T13:00:22.862Z,3.43
2018-09-29T13:02:53.514Z,4.57
2018-09-29T13:05:24.004Z,2.07
2018-09-29T13:07:55.831Z,2.33
2018-09-29T13:10:26.499Z,4.40
2018-09-29T13:12:56.989Z,4.50
2018-09-29T13:15:29.392Z,5.37
2018-09-29T13:17:59.517Z,2.70
2018-09-29T13:20:29.732Z,4.37
2018-09-29T13:23:00.041Z,2.57
2018-09-29T13:25:30.231Z,2.70
2018-09-29T13:28:01.173Z,4.37
2018-09-29T13:30:31.565Z,7.10
2018-09-29T13:33:03.489Z,3.00
2018-09-29T13:35:34.821Z,3.62
2018-09-29T13:38:05.458Z,2.97
2018-09-29T13:40:35.962Z,3.08
2018-09-29T13:43:07.099Z,2.77
2018-09-29T13:45:37.932Z,2.77
2018-09-29T13:48:09.634Z,1.47
2018-09-29T13:50:40.843Z,1.98
2018-09-29T13:53:11.773Z,3.70
2018-09-29T13:55:42.321Z,2.65
2018-09-29T13:58:14.235Z,2.30
2018-09-29T14:00:46.065Z,2.40
2018-09-29T14:03:16.423Z,3.50
2018-09-29T14:05:51.091Z,1.50
2018-09-29T14:08:21.990Z,5.10
2018-09-29T14:10:52.855Z,2.27
2018-09-29T14:13:24.651Z,5.63
2018-09-29T14:15:55.279Z,4.20
2018-09-29T14:18:26.355Z,5.77
2018-09-29T14:20:56.227Z,2.90
2018-09-29T14:23:26.298Z,2.70
2018-09-29T14:25:57.532Z,5.67
2018-09-29T14:28:28.615Z,2.03
2018-09-29T14:31:01.421Z,4.73
2018-09-29T14:33:33.960Z,2.73
2018-09-29T14:36:06.095Z,2.30
2018-09-29T14:38:38.185Z,3.10
2018-09-29T14:41:09.842Z,2.43
2018-09-29T14:43:39.934Z,3.53
2018-09-29T14:46:11.245Z,5.33
2018-09-29T14:48:44.548Z,2.77
2018-09-29T14:51:16.476Z,2.53
2018-09-29T14:53:50.825Z,2.73
2018-09-29T14:56:23.724Z,4.13
2018-09-29T14:58:55.952Z,3.03
2018-09-29T15:01:26.362Z,2.50
2018-09-29T15:03:57.660Z,2.93
2018-09-29T15:06:28.586Z,5.97
2018-09-29T15:08:59.996Z,3.07
2018-09-29T15:11:32.223Z,3.77
2018-09-29T15:14:02.513Z,5.77
2018-09-29T15:16:34.189Z,4.87
2018-09-29T15:19:04.492Z,5.23
2018-09-29T15:21:35.309Z,2.60
2018-09-29T15:24:07.305Z,2.73
2018-09-29T15:26:38.875Z,2.63
2018-09-29T15:29:10.664Z,6.20
2018-09-29T15:31:42.617Z,4.67
2018-09-29T15:34:14.365Z,7.57
2018-09-29T15:36:45.058Z,3.90
2018-09-29T15:39:17.609Z,5.07
2018-09-29T15:41:47.846Z,4.60
2018-09-29T15:44:19.258Z,2.70
2018-09-29T15:46:49.341Z,4.60
2018-09-29T15:49:20.397Z,3.97
2018-09-29T15:51:50.861Z,3.47
2018-09-29T15:54:22.525Z,2.97
2018-09-29T15:56:52.705Z,5.33
2018-09-29T15:59:24.559Z,3.50
2018-09-29T16:01:57.345Z,3.30
2018-09-29T16:04:30.957Z,5.73
2018-09-29T16:07:02.982Z,3.40
2018-09-29T16:09:33.774Z,2.00
2018-09-29T16:12:06.993Z,4.37
2018-09-29T16:14:37.165Z,3.23
2018-09-29T16:17:13.926Z,3.00
2018-09-29T16:19:45.942Z,7.53
2018-09-29T16:22:17.806Z,4.60
2018-09-29T16:24:47.995Z,5.37
2018-09-29T16:27:19.235Z,7.20
2018-09-29T16:29:54.546Z,3.47
2018-09-29T16:32:27.876Z,5.57
2018-09-29T16:34:58.641Z,2.93
2018-09-29T16:37:31.694Z,3.23
2018-09-29T16:40:03.079Z,4.30
2018-09-29T16:42:36.412Z,3.53
2018-09-29T16:45:07.408Z,4.80
2018-09-29T16:47:38.962Z,5.33
2018-09-29T16:50:10.275Z,4.30
2018-09-29T16:52:41.028Z,3.73
2018-09-29T16:55:11.488Z,3.87
2018-09-29T16:57:58.957Z,2.73
2018-09-29T17:00:30.725Z,4.90
2018-09-29T17:03:02.068Z,6.50
2018-09-29T17:05:32.711Z,5.73
2018-09-29T17:08:04.301Z,5.20
2018-09-29T17:10:37.002Z,5.83
2018-09-29T17:13:07.704Z,6.33
2018-09-29T17:15:37.935Z,6.20
2018-09-29T17:18:08.117Z,10.43
2018-09-29T17:20:40.290Z,7.37
2018-09-29T17:23:15.578Z,5.90
2018-09-29T17:25:51.030Z,9.13
2018-09-29T17:29:38.957Z,9.37
2018-09-29T17:32:29.235Z,8.50
2018-09-29T17:35:04.337Z,4.30
2018-09-29T17:37:41.548Z,8.20
2018-09-29T17:40:12.321Z,5.10
2018-09-29T17:42:49.528Z,7.47
2018-09-29T17:56:43.683Z,6.47
2018-09-29T17:59:18.076Z,7.00
2018-09-29T18:02:00.998Z,7.10
2018-09-29T18:04:31.877Z,8.33
2018-09-29T18:07:09.629Z,5.77
2018-09-29T18:09:47.213Z,7.10
2018-09-29T18:12:52.337Z,5.23
2018-09-29T18:15:24.647Z,7.83
2018-09-29T18:20:47.611Z,6.83
2018-09-29T18:23:18.124Z,7.30
2018-09-29T18:25:48.779Z,8.53
2018-09-29T18:28:19.931Z,9.10
2018-09-29T18:30:50.437Z,5.50
2018-09-29T18:33:22.101Z,8.00
2018-09-29T18:35:52.852Z,7.40
2018-09-29T18:38:23.275Z,5.70
2018-09-29T18:40:53.758Z,5.03
2018-09-29T18:43:24.160Z,3.90
2018-09-29T18:45:54.547Z,6.27
2018-09-29T18:48:25.363Z,3.70
2018-09-29T18:50:55.699Z,4.17
2018-09-29T18:53:26.175Z,6.67
2018-09-29T18:55:56.686Z,5.60
2018-09-29T18:58:27.152Z,9.70
2018-09-29T19:00:57.678Z,15.00
2018-09-29T19:03:28.222Z,6.67
2018-09-29T19:05:58.714Z,6.83
2018-09-29T19:08:29.478Z,5.87
2018-09-29T19:11:01.076Z,5.23
2018-09-29T19:13:32.288Z,8.47
2018-09-29T19:16:02.808Z,7.20
2018-09-29T19:18:33.196Z,4.47
2018-09-29T19:21:04.235Z,4.80
2018-09-29T19:23:34.772Z,4.97
2018-09-29T19:26:05.559Z,2.67
2018-09-29T19:28:36.016Z,4.03
2018-09-29T19:31:06.727Z,4.10
2018-09-29T19:33:37.171Z,5.37
2018-09-29T19:36:09.014Z,3.70
2018-09-29T19:38:39.390Z,6.73
2018-09-29T19:41:11.119Z,8.53
2018-09-29T19:43:41.599Z,6.30
2018-09-29T19:46:11.985Z,6.70
2018-09-29T19:48:42.617Z,6.87
2018-09-29T19:51:13.461Z,7.20
2018-09-29T19:53:44.158Z,5.50
2018-09-29T19:56:14.537Z,7.77
2018-09-29T19:58:44.949Z,6.23
2018-09-29T20:01:15.878Z,6.67
2018-09-29T20:03:46.287Z,5.97
2018-09-29T20:06:16.668Z,6.80
2018-09-29T20:08:47.090Z,6.93
2018-09-29T20:11:17.771Z,5.00
2018-09-29T20:13:48.939Z,4.70
2018-09-29T20:16:19.462Z,7.57
2018-09-29T20:18:53.918Z,3.70
2018-09-29T20:21:28.404Z,4.60
2018-09-29T20:23:59.021Z,4.77
2018-09-29T20:26:29.679Z,6.20
2018-09-29T20:29:00.424Z,3.90
2018-09-29T20:31:31.834Z,3.80
2018-09-29T20:34:02.513Z,6.10
2018-09-29T20:36:33.152Z,5.80
2018-09-29T20:39:04.702Z,4.40
2018-09-29T20:41:35.130Z,6.30
2018-09-29T20:44:05.817Z,9.73
2018-09-29T20:46:37.143Z,5.47
2018-09-29T20:49:08.509Z,6.83
2018-09-29T20:51:42.210Z,4.73
2018-09-29T20:54:13.409Z,4.83
2018-09-29T20:56:43.987Z,6.57
2018-09-29T20:59:14.782Z,7.30
2018-09-29T21:01:45.844Z,5.80
2018-09-29T21:04:17.002Z,4.67
2018-09-29T21:06:53.829Z,8.50
2018-09-29T21:09:24.487Z,8.30
2018-09-29T21:11:55.044Z,5.60
2018-09-29T21:14:25.897Z,11.00
2018-09-29T21:16:56.331Z,6.43
2018-09-29T21:19:26.957Z,6.10
2018-09-29T21:21:59.229Z,7.37
2018-09-29T21:24:29.893Z,5.23
2018-09-29T21:27:00.357Z,6.23
2018-09-29T21:29:31.383Z,6.00
2018-09-29T21:32:02.918Z,9.20
2018-09-29T21:34:33.534Z,5.67
2018-09-29T21:37:04.190Z,8.07
2018-09-29T21:39:34.886Z,5.13
2018-09-29T21:42:05.918Z,7.20
2018-09-29T21:44:37.186Z,8.17
2018-09-29T21:47:08.492Z,7.37
2018-09-29T21:49:38.837Z,7.27
2018-09-29T21:52:09.303Z,9.00
2018-09-29T21:54:39.741Z,9.93
2018-09-29T21:57:10.386Z,6.70
2018-09-29T21:59:40.836Z,6.47
2018-09-29T22:02:11.298Z,8.43
2018-09-29T22:04:41.713Z,9.10
2018-09-29T22:07:14.520Z,11.60
2018-09-29T22:09:44.970Z,9.03
2018-09-29T22:12:15.470Z,8.23
2018-09-29T22:14:45.899Z,11.10
2018-09-29T22:17:17.206Z,7.47
2018-09-29T22:19:47.573Z,10.30
2018-09-29T22:22:18.082Z,7.50
2018-09-29T22:24:50.196Z,8.73
2018-09-29T22:27:20.687Z,11.47
2018-09-29T22:29:51.076Z,9.57
2018-09-29T22:32:21.614Z,7.90
2018-09-29T22:34:52.224Z,11.70
2018-09-29T22:37:22.568Z,8.63
2018-09-29T22:39:52.974Z,13.17
2018-09-29T22:42:23.429Z,11.20
2018-09-29T22:44:53.912Z,10.20
2018-09-29T22:47:26.669Z,12.47
2018-09-29T22:49:57.078Z,10.97
2018-09-29T22:52:28.685Z,10.23
2018-09-29T22:54:59.651Z,11.73
2018-09-29T22:57:30.036Z,13.17
2018-09-29T23:00:00.520Z,6.93
2018-09-29T23:02:30.964Z,8.13
2018-09-29T23:05:04.681Z,9.40
2018-09-29T23:07:35.044Z,9.47
2018-09-29T23:10:05.466Z,9.13
2018-09-29T23:12:35.828Z,8.17
2018-09-29T23:15:06.276Z,8.37
2018-09-29T23:17:36.659Z,8.97
2018-09-29T23:20:07.107Z,9.90
2018-09-29T23:22:37.535Z,8.20
2018-09-29T23:25:08.184Z,7.53
2018-09-29T23:27:38.632Z,11.20
2018-09-29T23:30:09.083Z,10.00
2018-09-29T23:32:39.509Z,6.50
2018-09-29T23:35:09.914Z,8.20
2018-09-29T23:37:40.420Z,7.87
2018-09-29T23:40:10.818Z,8.03
2018-09-29T23:42:41.274Z,8.50
2018-09-29T23:45:11.559Z,9.10
2018-09-29T23:47:41.922Z,8.87
2018-09-29T23:50:12.221Z,8.40
2018-09-29T23:52:42.577Z,9.70
2018-09-29T23:55:12.921Z,10.87
2018-09-29T23:57:43.533Z,12.30
